createdAt,value
2023-03-22T00:01:17.297Z,55.12
2023-03-22T00:03:44.914Z,55.91
2023-03-22T00:06:13.055Z,55.73
2023-03-22T00:08:40.741Z,56.09
2023-03-22T00:11:08.781Z,55.47
2023-03-22T00:13:37.653Z,55.16
2023-03-22T00:16:05.940Z,55.43
2023-03-22T00:18:33.591Z,55.72
2023-03-22T00:21:01.236Z,55.54
2023-03-22T00:23:29.540Z,55.45
2023-03-22T00:25:57.550Z,55.30
2023-03-22T00:28:25.332Z,55.41
2023-03-22T00:30:57.818Z,55.68
2023-03-22T00:33:28.623Z,55.28
2023-03-22T00:36:00.787Z,55.84
2023-03-22T00:38:44.827Z,56.25
2023-03-22T00:41:14.784Z,55.48
2023-03-22T00:43:42.781Z,55.92
2023-03-22T00:46:11.463Z,56.03
2023-03-22T00:48:39.517Z,55.78
2023-03-22T00:51:08.059Z,55.96
2023-03-22T00:53:37.643Z,56.30
2023-03-22T00:56:06.287Z,56.47
2023-03-22T00:58:44.486Z,56.56
2023-03-22T01:01:15.323Z,56.76
2023-03-22T01:03:43.885Z,56.93
2023-03-22T01:06:15.188Z,56.51
2023-03-22T01:08:43.148Z,56.20
2023-03-22T01:11:10.880Z,56.46
2023-03-22T01:13:39.716Z,56.80
2023-03-22T01:16:07.900Z,57.08
2023-03-22T01:18:36.416Z,56.88
2023-03-22T01:21:04.518Z,57.36
2023-03-22T01:23:32.319Z,57.63
2023-03-22T01:26:00.075Z,57.51
2023-03-22T01:28:28.707Z,57.96
2023-03-22T01:30:56.772Z,58.14
2023-03-22T01:33:24.524Z,58.31
2023-03-22T01:35:53.068Z,58.33
2023-03-22T01:38:21.896Z,58.47
2023-03-22T01:40:59.341Z,58.31
2023-03-22T01:43:29.436Z,57.84
2023-03-22T01:45:58.780Z,57.49
2023-03-22T01:48:35.080Z,57.74
2023-03-22T01:51:03.219Z,58.03
2023-03-22T01:53:37.200Z,58.54
2023-03-22T01:56:07.361Z,58.94
2023-03-22T01:58:37.418Z,59.49
2023-03-22T02:01:08.752Z,58.77
2023-03-22T02:03:53.840Z,59.66
2023-03-22T02:06:23.904Z,58.00
2023-03-22T02:08:58.841Z,58.74
2023-03-22T02:11:31.158Z,59.11
2023-03-22T02:14:01.428Z,59.04
2023-03-22T02:17:19.909Z,59.43
2023-03-22T02:20:08.240Z,59.09
2023-03-22T02:22:58.644Z,59.40
2023-03-22T02:25:44.979Z,60.19
2023-03-22T02:28:27.658Z,60.44
2023-03-22T02:30:55.523Z,59.83
2023-03-22T02:33:29.201Z,59.18
2023-03-22T02:36:23.167Z,59.64
2023-03-22T02:39:04.669Z,60.12
2023-03-22T02:41:44.262Z,60.57
2023-03-22T02:44:32.712Z,60.03
2023-03-22T02:47:05.182Z,59.89
2023-03-22T02:50:02.391Z,60.30
2023-03-22T02:52:43.372Z,60.67
2023-03-22T02:55:14.781Z,61.21
2023-03-22T02:57:47.669Z,60.88
2023-03-22T03:00:16.542Z,60.97
2023-03-22T03:02:49.071Z,61.42
2023-03-22T03:05:18.700Z,61.31
2023-03-22T03:07:58.328Z,60.76
2023-03-22T03:10:27.346Z,60.06
2023-03-22T03:12:55.134Z,60.39
2023-03-22T03:15:23.931Z,60.26
2023-03-22T03:18:07.502Z,60.33
2023-03-22T03:20:54.720Z,60.58
2023-03-22T03:23:28.575Z,60.71
2023-03-22T03:25:59.813Z,60.49
2023-03-22T03:28:38.752Z,60.64
2023-03-22T03:31:11.484Z,60.12
2023-03-22T03:33:59.014Z,60.61
2023-03-22T03:36:27.642Z,60.21
2023-03-22T03:38:56.452Z,60.44
2023-03-22T03:41:29.308Z,60.88
2023-03-22T03:43:58.750Z,61.33
2023-03-22T03:46:29.457Z,61.22
2023-03-22T03:48:57.901Z,60.93
2023-03-22T03:51:27.546Z,61.47
2023-03-22T03:53:55.351Z,61.36
2023-03-22T03:56:23.848Z,60.68
2023-03-22T03:58:52.704Z,61.43
2023-03-22T04:01:21.047Z,61.18
2023-03-22T04:04:08.072Z,61.80
2023-03-22T04:06:45.300Z,61.00
2023-03-22T04:09:18.298Z,60.45
2023-03-22T04:11:50.687Z,61.12
2023-03-22T04:14:18.927Z,61.37
2023-03-22T04:16:49.440Z,61.68
2023-03-22T04:19:20.747Z,62.39
2023-03-22T04:21:48.695Z,62.50
2023-03-22T04:24:16.444Z,61.90
2023-03-22T04:26:46.923Z,62.38
2023-03-22T04:29:23.189Z,62.23
2023-03-22T04:31:55.364Z,61.77
2023-03-22T04:34:43.346Z,61.43
2023-03-22T04:37:18.393Z,60.71
2023-03-22T04:39:56.357Z,60.77
2023-03-22T04:42:24.541Z,60.40
2023-03-22T04:45:04.322Z,61.36
2023-03-22T04:47:32.691Z,62.34
2023-03-22T04:50:01.474Z,63.00
2023-03-22T04:52:34.466Z,64.07
2023-03-22T04:55:02.902Z,64.09
2023-03-22T04:57:30.892Z,64.11
2023-03-22T04:59:58.546Z,64.63
2023-03-22T05:02:26.635Z,63.77
2023-03-22T05:04:55.093Z,62.20
2023-03-22T05:07:36.828Z,62.82
2023-03-22T05:10:06.372Z,63.34
2023-03-22T05:12:34.124Z,63.78
2023-03-22T05:15:24.300Z,63.07
2023-03-22T05:17:53.702Z,62.83
2023-03-22T05:20:21.482Z,63.74
2023-03-22T05:23:02.823Z,63.91
2023-03-22T05:25:32.362Z,64.09
2023-03-22T05:28:02.286Z,63.49
2023-03-22T05:30:37.794Z,64.24
2023-03-22T05:33:24.702Z,64.53
2023-03-22T05:35:57.193Z,64.82
2023-03-22T05:38:26.870Z,64.92
2023-03-22T05:40:57.915Z,64.15
2023-03-22T05:43:27.564Z,63.52
2023-03-22T05:45:55.465Z,62.90
2023-03-22T05:48:49.838Z,62.98
2023-03-22T05:51:19.867Z,62.88
2023-03-22T05:53:51.850Z,63.85
2023-03-22T05:56:24.728Z,63.48
2023-03-22T05:59:00.569Z,63.27
2023-03-22T06:01:28.251Z,63.70
2023-03-22T06:04:13.320Z,63.45
2023-03-22T06:06:51.679Z,62.61
2023-03-22T06:09:37.190Z,62.23
2023-03-22T06:12:08.239Z,62.69
2023-03-22T06:14:36.339Z,62.30
2023-03-22T06:17:18.637Z,62.29
2023-03-22T06:19:48.570Z,62.18
2023-03-22T06:22:16.817Z,62.30
2023-03-22T06:24:45.254Z,62.48
2023-03-22T06:27:18.900Z,61.37
2023-03-22T06:29:51.068Z,61.15
2023-03-22T06:32:26.906Z,61.33
2023-03-22T06:34:56.502Z,61.38
2023-03-22T06:37:25.234Z,60.96
2023-03-22T06:39:53.239Z,60.69
2023-03-22T06:42:24.103Z,60.78
2023-03-22T06:45:02.061Z,60.55
2023-03-22T06:47:33.778Z,60.86
2023-03-22T06:50:01.382Z,60.36
2023-03-22T06:52:49.080Z,59.78
2023-03-22T06:55:16.872Z,59.52
2023-03-22T06:57:45.204Z,59.07
2023-03-22T07:00:13.218Z,58.46
2023-03-22T07:02:40.852Z,57.91
2023-03-22T07:05:20.551Z,57.75
2023-03-22T07:07:48.229Z,57.88
2023-03-22T07:10:16.165Z,57.77
2023-03-22T07:12:43.864Z,57.59
2023-03-22T07:15:17.520Z,57.75
2023-03-22T07:18:01.533Z,57.41
2023-03-22T07:20:30.355Z,57.13
2023-03-22T07:22:58.233Z,57.16
2023-03-22T07:25:29.002Z,56.48
2023-03-22T07:28:07.429Z,55.64
2023-03-22T07:30:38.481Z,55.83
2023-03-22T07:33:07.856Z,55.60
2023-03-22T07:35:37.010Z,55.15
2023-03-22T07:38:05.831Z,54.42
2023-03-22T07:40:34.330Z,54.10
2023-03-22T07:43:02.455Z,53.52
2023-03-22T07:45:49.400Z,53.85
2023-03-22T07:48:49.813Z,52.58
2023-03-22T07:51:30.626Z,52.04
2023-03-22T07:53:59.046Z,50.76
2023-03-22T07:56:26.825Z,49.67
2023-03-22T07:58:54.522Z,49.51
2023-03-22T08:01:22.610Z,49.15
2023-03-22T08:03:59.996Z,48.86
2023-03-22T08:06:37.521Z,48.04
2023-03-22T08:09:05.438Z,47.77
2023-03-22T08:11:33.123Z,47.52
2023-03-22T08:14:00.876Z,47.97
2023-03-22T08:16:30.155Z,48.18
2023-03-22T08:18:59.593Z,47.79
2023-03-22T08:21:29.342Z,47.88
2023-03-22T08:23:57.985Z,46.69
2023-03-22T08:26:28.662Z,46.36
2023-03-22T08:29:00.163Z,46.38
2023-03-22T08:31:31.810Z,46.45
2023-03-22T08:34:00.054Z,46.46
2023-03-22T08:36:29.490Z,46.48
2023-03-22T08:39:01.687Z,45.74
2023-03-22T08:41:56.509Z,45.71
2023-03-22T08:44:26.708Z,45.17
2023-03-22T08:46:54.691Z,45.60
2023-03-22T08:49:22.526Z,45.46
2023-03-22T08:51:58.167Z,45.31
2023-03-22T08:54:40.405Z,45.54
2023-03-22T08:57:34.175Z,45.39
2023-03-22T09:00:20.363Z,44.60
2023-03-22T09:05:49.761Z,44.21
2023-03-22T09:08:19.549Z,43.83
2023-03-22T09:10:53.763Z,43.12
2023-03-22T09:13:23.402Z,42.96
2023-03-22T09:16:02.418Z,42.87
2023-03-22T09:18:33.059Z,43.14
2023-03-22T09:21:04.641Z,42.97
2023-03-22T09:23:54.195Z,42.88
2023-03-22T09:26:28.030Z,43.05
2023-03-22T09:28:56.150Z,43.03
2023-03-22T09:31:23.838Z,42.95
2023-03-22T09:34:02.578Z,42.62
2023-03-22T09:36:32.552Z,42.47
2023-03-22T09:39:01.288Z,41.62
2023-03-22T09:41:41.957Z,41.26
2023-03-22T09:44:16.360Z,41.13
2023-03-22T09:46:46.476Z,41.54
2023-03-22T09:49:19.488Z,41.22
2023-03-22T09:51:48.859Z,39.88
2023-03-22T09:54:20.348Z,40.09
2023-03-22T09:57:06.696Z,40.73
2023-03-22T09:59:46.808Z,41.69
2023-03-22T10:02:47.079Z,41.18
2023-03-22T10:05:27.600Z,40.74
2023-03-22T10:08:10.116Z,40.25
2023-03-22T10:10:42.179Z,39.78
2023-03-22T10:13:18.085Z,40.03
2023-03-22T10:15:47.436Z,39.18
2023-03-22T10:18:20.620Z,39.24
2023-03-22T10:20:58.770Z,37.44
2023-03-22T10:23:32.676Z,37.48
2023-03-22T10:26:01.477Z,37.89
2023-03-22T10:28:31.988Z,37.97
2023-03-22T10:30:59.805Z,36.94
2023-03-22T10:33:56.979Z,36.84
2023-03-22T10:36:27.258Z,36.89
2023-03-22T10:38:56.691Z,35.68
2023-03-22T10:41:25.965Z,37.15
2023-03-22T10:43:55.860Z,36.24
2023-03-22T10:46:26.277Z,35.89
2023-03-22T10:48:57.483Z,36.39
2023-03-22T10:51:41.390Z,36.05
2023-03-22T10:54:16.561Z,37.02
2023-03-22T10:56:45.097Z,36.63
2023-03-22T10:59:33.170Z,35.04
2023-03-22T11:02:02.077Z,35.37
2023-03-22T11:04:31.448Z,35.30
2023-03-22T11:06:59.090Z,33.51
2023-03-22T11:09:26.762Z,33.83
2023-03-22T11:11:56.526Z,33.55
2023-03-22T11:14:30.943Z,34.33
2023-03-22T11:17:00.492Z,35.01
2023-03-22T11:19:32.273Z,33.75
2023-03-22T11:22:00.710Z,33.74
2023-03-22T11:24:30.440Z,32.79
2023-03-22T11:27:03.964Z,32.22
2023-03-22T11:29:39.772Z,32.85
2023-03-22T11:32:19.769Z,32.07
2023-03-22T11:34:47.629Z,31.56
2023-03-22T11:37:18.299Z,32.65
2023-03-22T11:39:49.814Z,31.92
2023-03-22T11:42:21.653Z,30.54
2023-03-22T11:44:49.586Z,30.43
2023-03-22T11:47:17.344Z,30.08
2023-03-22T11:49:50.456Z,29.86
2023-03-22T11:52:19.621Z,29.64
2023-03-22T11:54:47.681Z,29.15
2023-03-22T11:57:17.451Z,28.67
2023-03-22T11:59:50.652Z,29.05
2023-03-22T12:02:18.233Z,28.11
2023-03-22T12:04:48.086Z,28.00
2023-03-22T12:07:16.973Z,29.32
2023-03-22T12:09:53.784Z,29.45
2023-03-22T12:12:25.034Z,29.47
2023-03-22T12:14:57.530Z,29.06
2023-03-22T12:17:30.534Z,27.57
2023-03-22T12:20:14.585Z,27.64
2023-03-22T12:22:46.136Z,27.70
2023-03-22T12:25:18.672Z,28.08
2023-03-22T12:27:53.796Z,27.68
2023-03-22T12:30:23.918Z,25.76
2023-03-22T12:32:51.670Z,25.80
2023-03-22T12:35:23.021Z,26.22
2023-03-22T12:37:52.543Z,25.63
2023-03-22T12:40:23.525Z,24.35
2023-03-22T12:43:06.543Z,24.00
2023-03-22T12:45:39.705Z,23.71
2023-03-22T12:48:16.490Z,23.57
2023-03-22T12:50:47.831Z,23.43
2023-03-22T12:53:17.223Z,22.97
2023-03-22T12:55:46.449Z,22.37
2023-03-22T12:58:18.751Z,20.97
2023-03-22T13:01:09.273Z,20.79
2023-03-22T13:03:39.418Z,21.45
2023-03-22T13:06:27.550Z,20.73
2023-03-22T13:09:17.179Z,20.43
2023-03-22T13:11:46.342Z,20.95
2023-03-22T13:14:46.472Z,20.49
2023-03-22T13:17:15.702Z,18.88
2023-03-22T13:19:52.368Z,20.64
2023-03-22T13:22:22.421Z,18.79
2023-03-22T13:25:08.738Z,18.86
2023-03-22T13:27:50.315Z,18.82
2023-03-22T13:30:21.852Z,18.29
2023-03-22T13:32:55.740Z,16.92
2023-03-22T13:35:28.766Z,16.43
2023-03-22T13:38:03.136Z,16.29
2023-03-22T13:40:36.717Z,17.68
2023-03-22T13:43:12.520Z,16.98
2023-03-22T13:45:58.530Z,18.25
2023-03-22T13:48:34.876Z,18.40
2023-03-22T13:51:17.041Z,17.76
2023-03-22T13:54:07.205Z,17.54
2023-03-22T13:56:41.398Z,18.16
2023-03-22T13:59:13.571Z,17.41
2023-03-22T14:01:48.097Z,17.28
2023-03-22T14:04:23.085Z,16.28
2023-03-22T14:06:54.076Z,17.60
2023-03-22T14:09:25.558Z,17.42
2023-03-22T14:11:57.140Z,19.64
2023-03-22T14:14:29.051Z,19.22
2023-03-22T14:17:13.480Z,18.38
2023-03-22T14:19:41.996Z,19.96
